Ankeny, IA

6:45 AM CDT on August 19, 2017 (GMT -0500)
Ankeny Regional

Weather History for KIKV - June, 2013

Change the Weather History Date:

Friday, June 14, 2013

  Actual Average (KDSM) Record (KDSM)
Temperature  
Mean Temperature 68 °F -  
Max Temperature 75 °F 80 °F 101 °F (1886)
Min Temperature 60 °F 63 °F 46 °F (1942)
Cooling Degree Days 2    
Growing Degree Days 18 (Base 50)    
Moisture  
Dew Point 61 °F    
Average Humidity 79    
Maximum Humidity 94    
Minimum Humidity 60    
Precipitation  
Precipitation 1.32 in - - ()
Sea Level Pressure  
Sea Level Pressure 30.00 in    
Wind  
Wind Speed 6 mph (SSE)    
Max Wind Speed 25 mph    
Max Gust Speed 39 mph    
Visibility 9 miles    
Events Rain    
Averages and records for this station are not official NWS values.
T = Trace of Precipitation, MM = Missing Value Source: NWS Daily Summary

Daily Weather History Graph

Daily Weather History Graph

Search for Another Location

Airport or City:

Trip Planner

Search our weather history database for the weather conditions in past years. The results will help you decide how hot, cold, wet, or windy it might be!

Date:

Astronomy

Jun. 14, 2013 Rise Set
Actual Time 5:39 AM CDT 8:50 PM CDT
Civil Twilight 5:05 AM CDT 9:24 PM CDT
Nautical Twilight 4:21 AM CDT 10:08 PM CDT
Astronomical Twilight 3:28 AM CDT 11:00 PM CDT
Moon 11:19 AM CDT (6/14) No Moon Set
Length of Visible Light 16h 19m
Length of Day
15h 11m
Waxing Crescent, 30% of the Moon is Illuminated
Jun 14
Waxing Crescent
Jun 16
First Quarter
Jun 23
Full
Jun 29
Last Quarter
Jul 8
New

Hourly Weather History & Observations

Time (CDT) Temp. Dew Point Humidity Pressure Visibility Wind Dir Wind Speed Gust Speed Precip Events Conditions
12:15 AM 69.8 °F 57.2 °F 64% 30.03 in 10.0 mi East 3.5 mph - N/A   Clear
12:35 AM 68.0 °F 57.2 °F 68% 30.04 in 10.0 mi Calm Calm - N/A   Clear
12:55 AM 68.0 °F 57.2 °F 68% 30.05 in 10.0 mi Calm Calm - N/A   Clear
1:15 AM 64.4 °F 59.0 °F 83% 30.05 in 10.0 mi Calm Calm - N/A   Clear
1:35 AM 62.6 °F 59.0 °F 88% 30.05 in 10.0 mi Calm Calm - N/A   Clear
1:55 AM 62.6 °F 59.0 °F 88% 30.05 in 10.0 mi Calm Calm - N/A   Clear
2:15 AM 62.6 °F 59.0 °F 88% 30.06 in 10.0 mi Calm Calm - N/A   Clear
2:35 AM 60.8 °F 59.0 °F 94% 30.05 in 10.0 mi Calm Calm - N/A   Clear
2:55 AM 60.8 °F 59.0 °F 94% 30.04 in 10.0 mi Calm Calm - N/A   Clear
3:15 AM 60.8 °F 59.0 °F 94% 30.04 in 10.0 mi Calm Calm - N/A   Clear
3:35 AM 64.4 °F 57.2 °F 77% 30.05 in 10.0 mi Calm Calm - N/A   Clear
3:55 AM 62.6 °F 59.0 °F 88% 30.04 in 10.0 mi Calm Calm - N/A   Clear
4:15 AM 62.6 °F 59.0 °F 88% 30.03 in 10.0 mi Calm Calm - N/A   Clear
4:35 AM 64.4 °F 59.0 °F 83% 30.05 in 10.0 mi Calm Calm - N/A   Clear
4:55 AM 64.4 °F 59.0 °F 83% 30.05 in 10.0 mi NE 3.5 mph - N/A   Clear
5:15 AM 64.4 °F 57.2 °F 77% 30.03 in 10.0 mi East 8.1 mph - N/A   Clear
5:35 AM 64.4 °F 57.2 °F 77% 30.03 in 10.0 mi East 5.8 mph - N/A   Partly Cloudy
5:55 AM 66.2 °F 57.2 °F 73% 30.04 in 10.0 mi East 4.6 mph - N/A   Scattered Clouds
6:15 AM 66.2 °F 57.2 °F 73% 30.06 in 10.0 mi NE 3.5 mph - N/A   Mostly Cloudy
6:35 AM 66.2 °F 59.0 °F 78% 30.06 in 10.0 mi SE 4.6 mph - N/A   Overcast
6:55 AM 66.2 °F 59.0 °F 78% 30.06 in 10.0 mi SE 5.8 mph - N/A   Mostly Cloudy
7:15 AM 66.2 °F 59.0 °F 78% 30.06 in 10.0 mi ESE 6.9 mph - N/A   Clear
7:35 AM 68.0 °F 59.0 °F 73% 30.04 in 10.0 mi SE 9.2 mph - N/A   Clear
7:55 AM 68.0 °F 57.2 °F 68% 30.04 in 10.0 mi SE 10.4 mph - N/A   Clear
8:15 AM 69.8 °F 57.2 °F 64% 30.04 in 10.0 mi SE 9.2 mph - N/A   Clear
8:35 AM 71.6 °F 59.0 °F 64% 30.03 in 10.0 mi SSE 11.5 mph 17.3 mph N/A   Clear
8:55 AM 73.4 °F 59.0 °F 61% 30.02 in 10.0 mi SE 13.8 mph - N/A   Scattered Clouds
9:15 AM 73.4 °F 59.0 °F 61% 30.02 in 10.0 mi SSE 15.0 mph - N/A   Partly Cloudy
9:35 AM 71.6 °F 57.2 °F 60% 30.03 in 10.0 mi SSE 16.1 mph - N/A   Mostly Cloudy
9:55 AM 71.6 °F 59.0 °F 64% 30.05 in 10.0 mi SSE 8.1 mph - N/A   Mostly Cloudy
10:15 AM 71.6 °F 59.0 °F 64% 30.06 in 10.0 mi South 5.8 mph - N/A   Overcast
10:35 AM 71.6 °F 59.0 °F 64% 30.06 in 10.0 mi Variable 5.8 mph - N/A   Overcast
10:55 AM 69.8 °F 59.0 °F 68% 30.04 in 10.0 mi ESE 10.4 mph - N/A   Mostly Cloudy
11:15 AM 69.8 °F 59.0 °F 68% 30.00 in 10.0 mi SE 15.0 mph 21.9 mph N/A   Mostly Cloudy
11:35 AM 68.0 °F 60.8 °F 78% 29.98 in 9.0 mi SE 13.8 mph 23.0 mph N/A   Scattered Clouds
11:55 AM 68.0 °F 62.6 °F 83% 29.97 in 9.0 mi East 8.1 mph 20.7 mph N/A   Light Drizzle
12:15 PM 68.0 °F 62.6 °F 83% 29.96 in 10.0 mi ESE 11.5 mph - N/A   Light Drizzle
12:35 PM 68.0 °F 62.6 °F 83% 29.95 in 10.0 mi ESE 19.6 mph - N/A   Partly Cloudy
12:55 PM 68.0 °F 62.6 °F 83% 30.00 in 10.0 mi South 5.8 mph 16.1 mph N/A   Light Drizzle
1:15 PM 68.0 °F 64.4 °F 88% 29.99 in 10.0 mi ENE 6.9 mph - N/A   Clear
1:35 PM 69.8 °F 64.4 °F 83% 30.00 in 10.0 mi Variable 3.5 mph - N/A   Clear
1:55 PM 71.6 °F 64.4 °F 78% 30.00 in 10.0 mi SE 9.2 mph - N/A   Clear
2:15 PM 71.6 °F 62.6 °F 73% 30.00 in 10.0 mi SSE 10.4 mph - N/A   Clear
2:35 PM 73.4 °F 64.4 °F 73% 30.00 in 10.0 mi SSE 11.5 mph - N/A   Clear
2:55 PM 73.4 °F 64.4 °F 73% 29.99 in 10.0 mi SE 10.4 mph 17.3 mph N/A   Partly Cloudy
3:15 PM 73.4 °F 64.4 °F 73% 29.98 in 10.0 mi SE 12.7 mph - N/A   Partly Cloudy
3:35 PM 75.2 °F 64.4 °F 69% 29.97 in 10.0 mi SSE 12.7 mph 21.9 mph N/A   Partly Cloudy
3:55 PM 73.4 °F 64.4 °F 73% 29.97 in 10.0 mi SE 11.5 mph 19.6 mph N/A   Partly Cloudy
4:15 PM 73.4 °F 64.4 °F 73% 29.96 in 10.0 mi SE 13.8 mph - N/A   Partly Cloudy
4:35 PM 73.4 °F 62.6 °F 69% 30.00 in 10.0 mi SSW 4.6 mph 15.0 mph N/A   Mostly Cloudy
4:55 PM 71.6 °F 64.4 °F 78% 30.01 in 2.5 mi SSW 9.2 mph 17.3 mph 0.07 in Rain Rain
5:15 PM 66.2 °F 64.4 °F 94% 30.02 in 0.2 mi South 12.7 mph 20.7 mph N/A Rain Heavy Rain
5:35 PM 66.2 °F 64.4 °F 94% 30.01 in 1.2 mi SSE 8.1 mph - N/A Rain Rain
5:55 PM 66.2 °F 64.4 °F 94% 30.00 in 2.0 mi SSE 9.2 mph 17.3 mph 0.82 in Rain Light Rain
6:15 PM 66.2 °F 64.4 °F 94% 30.01 in 4.0 mi East 8.1 mph 15.0 mph N/A Rain Light Rain
6:35 PM 66.2 °F 64.4 °F 94% 29.96 in 2.5 mi East 17.3 mph - N/A Rain Rain
6:55 PM 66.2 °F 64.4 °F 94% 29.96 in 1.0 mi SSE 15.0 mph - 0.40 in   Light Drizzle
7:15 PM 66.2 °F 64.4 °F 94% 29.91 in 10.0 mi SSE 20.7 mph - N/A   Light Drizzle
7:35 PM 66.2 °F 64.4 °F 94% 29.91 in 10.0 mi South 11.5 mph 20.7 mph N/A   Light Drizzle
7:55 PM 66.2 °F 64.4 °F 94% 29.89 in 10.0 mi South 16.1 mph - N/A   Clear
8:15 PM 66.2 °F 64.4 °F 94% 29.87 in 10.0 mi South 17.3 mph - N/A   Clear
8:35 PM 66.2 °F 62.6 °F 88% 29.87 in 10.0 mi South 12.7 mph - N/A   Clear
8:55 PM 66.2 °F 62.6 °F 88% 29.86 in 10.0 mi South 15.0 mph 21.9 mph N/A   Clear
9:15 PM 66.2 °F 62.6 °F 88% 29.86 in 10.0 mi South 13.8 mph - N/A   Clear
9:35 PM 66.2 °F 62.6 °F 88% 29.86 in 10.0 mi South 10.4 mph - N/A   Clear
9:55 PM 68.0 °F 60.8 °F 78% 29.87 in 10.0 mi South 11.5 mph 17.3 mph N/A   Clear
10:15 PM 69.8 °F 59.0 °F 68% 29.89 in 10.0 mi SSW 9.2 mph 15.0 mph N/A   Mostly Cloudy
10:35 PM 69.8 °F 59.0 °F 68% 29.88 in 9.0 mi SSW 11.5 mph 18.4 mph N/A   Light Drizzle
10:55 PM 69.8 °F 59.0 °F 68% 29.94 in 10.0 mi SW 13.8 mph 20.7 mph N/A   Light Drizzle
11:15 PM 68.0 °F 62.6 °F 83% 29.99 in 4.0 mi West 25.3 mph 39.1 mph N/A Rain Rain
11:35 PM 66.2 °F 62.6 °F 88% 30.01 in 7.0 mi WSW 15.0 mph 26.5 mph N/A Rain Light Rain
11:55 PM 66.2 °F 62.6 °F 88% 30.01 in 10.0 mi SW 12.7 mph 23.0 mph 0.03 in   Light Drizzle